Time;durP1;ratioP1;P1;durP2;ratioP2;P2;SDS_P1;SDS_P2;PMS_P1;PMS_P2;Temp;Humidity;BMP_temperature;BMP_pressure;BME280_temperature;BME280_humidity;BME280_pressure;Samples;Min_cycle;Max_cycle;Signal;HPM_P1;HPM_P2
2023/12/29 00:02:53;;;;;;;32.65;18.00;;;;;;;4.53;61.87;100176.91;7737069;32;37168;-87
2023/12/29 00:07:10;;;;;;;32.47;17.50;;;;;;;4.47;62.05;100181.34;7737034;32;40100;-87
2023/12/29 00:11:26;;;;;;;121.78;19.25;;;;;;;4.53;61.73;100176.09;7736882;32;39576;-87
2023/12/29 00:15:43;;;;;;;25.50;15.07;;;;;;;4.20;62.35;100183.44;7735567;32;38136;-87
2023/12/29 00:19:59;;;;;;;26.17;15.35;;;;;;;4.54;61.38;100175.87;7736679;32;38277;-87
2023/12/29 00:24:16;;;;;;;25.42;14.48;;;;;;;4.75;60.45;100179.22;7736518;32;40056;-87
2023/12/29 00:28:33;;;;;;;27.90;15.00;;;;;;;4.78;60.11;100179.59;7736473;32;40801;-87
2023/12/29 00:32:49;;;;;;;27.37;15.70;;;;;;;4.47;61.26;100169.72;7736265;32;38015;-87
2023/12/29 00:37:06;;;;;;;24.87;16.05;;;;;;;4.63;60.98;100176.41;7736376;32;37924;-88
2023/12/29 00:41:22;;;;;;;25.70;15.55;;;;;;;4.50;62.46;100170.09;7735056;32;39772;-87
2023/12/29 00:45:38;;;;;;;25.30;15.40;;;;;;;4.47;62.95;100170.53;7735980;32;39718;-87
2023/12/29 00:49:55;;;;;;;28.52;15.30;;;;;;;4.59;62.57;100157.12;7736147;32;38066;-87
2023/12/29 00:54:11;;;;;;;23.25;14.70;;;;;;;4.49;62.91;100165.72;7736763;32;37279;-88
2023/12/29 00:58:28;;;;;;;28.77;15.77;;;;;;;4.74;62.46;100161.34;7739489;32;39999;-87
2023/12/29 01:02:44;;;;;;;23.65;15.00;;;;;;;4.67;62.89;100156.00;7739511;32;39598;-87
2023/12/29 01:07:00;;;;;;;26.30;14.15;;;;;;;4.80;62.39;100163.97;7739428;32;37779;-87
2023/12/29 01:11:17;;;;;;;33.72;15.35;;;;;;;4.77;62.33;100167.09;7739414;32;37236;-87
2023/12/29 01:15:33;;;;;;;38.80;16.37;;;;;;;4.78;62.11;100157.97;7739305;32;39418;-87
2023/12/29 01:19:49;;;;;;;28.45;15.10;;;;;;;4.75;62.07;100146.78;7739318;32;39890;-88
2023/12/29 01:24:07;;;;;;;30.60;15.45;;;;;;;4.52;62.60;100148.28;7739132;32;38746;-87
2023/12/29 01:28:23;;;;;;;27.00;15.48;;;;;;;4.56;62.29;100143.25;7739268;32;37231;-87
2023/12/29 01:32:40;;;;;;;25.48;14.80;;;;;;;4.57;62.21;100142.19;7739194;32;39329;-88
2023/12/29 01:36:56;;;;;;;25.67;14.30;;;;;;;4.54;62.30;100143.47;7739072;32;40031;-87
2023/12/29 01:41:13;;;;;;;23.62;13.48;;;;;;;4.64;61.97;100145.63;7738912;32;37611;-87
2023/12/29 01:45:29;;;;;;;26.15;15.30;;;;;;;4.71;61.37;100135.63;7738882;32;37505;-87
2023/12/29 01:49:48;;;;;;;23.48;13.88;;;;;;;4.45;62.01;100132.13;7738985;32;38973;-87
2023/12/29 01:54:04;;;;;;;29.55;15.68;;;;;;;4.56;61.73;100144.06;7738978;32;40516;-87
2023/12/29 01:58:20;;;;;;;24.98;14.75;;;;;;;4.43;62.10;100123.44;7738876;32;37637;-87
2023/12/29 02:02:37;;;;;;;26.42;15.52;;;;;;;4.54;62.06;100123.75;7738715;32;38049;-86
2023/12/29 02:06:54;;;;;;;32.20;16.30;;;;;;;4.66;62.14;100122.78;7710794;32;40083;-87
2023/12/29 02:11:10;;;;;;;27.20;16.10;;;;;;;4.88;61.82;100125.00;7711947;32;40568;-87
2023/12/29 02:15:27;;;;;;;26.83;15.65;;;;;;;4.80;61.99;100114.53;7698051;32;38721;-86
2023/12/29 02:19:44;;;;;;;27.52;16.65;;;;;;;4.86;61.62;100113.59;7698095;32;37355;-87
2023/12/29 02:24:02;;;;;;;30.52;16.55;;;;;;;4.76;61.85;100108.75;7711718;32;39446;-87
2023/12/29 02:28:25;;;;;;;28.38;15.38;;;;;;;4.71;61.92;100114.00;7711733;32;40018;-87
2023/12/29 02:32:44;;;;;;;30.27;16.73;;;;;;;4.67;61.99;100096.59;7711849;32;38073;-87
2023/12/29 02:37:01;;;;;;;32.88;17.30;;;;;;;4.59;62.04;100095.03;7698296;32;36977;-87
2023/12/29 02:41:17;;;;;;;27.27;15.93;;;;;;;4.75;61.77;100090.88;7711594;32;39262;-87
2023/12/29 02:45:34;;;;;;;82.07;19.45;;;;;;;4.50;62.72;100094.50;7711471;32;40236;-87
2023/12/29 02:49:50;;;;;;;87.82;19.95;;;;;;;4.62;62.55;100093.72;7711432;32;38509;-87
2023/12/29 02:54:07;;;;;;;29.77;16.25;;;;;;;4.41;63.26;100093.12;7711477;32;38025;-87
2023/12/29 02:58:23;;;;;;;36.58;16.65;;;;;;;4.57;62.87;100097.13;7711078;32;40034;-87
2023/12/29 03:02:40;;;;;;;31.00;17.08;;;;;;;4.38;63.34;100093.59;7711318;32;39992;-87
2023/12/29 03:06:56;;;;;;;34.65;18.48;;;;;;;4.32;63.68;100089.06;7711115;32;37682;-86
2023/12/29 03:11:13;;;;;;;29.12;16.52;;;;;;;4.61;62.92;100087.50;7711283;32;37273;-87
2023/12/29 03:15:29;;;;;;;30.20;16.40;;;;;;;4.28;64.13;100088.69;7711120;32;40069;-86
2023/12/29 03:19:45;;;;;;;28.35;16.20;;;;;;;4.48;63.58;100072.31;7710689;32;40801;-87
2023/12/29 03:24:02;;;;;;;28.45;16.45;;;;;;;4.62;63.49;100069.44;7711029;32;38065;-87
2023/12/29 03:28:18;;;;;;;27.42;16.10;;;;;;;4.54;63.87;100080.56;7711266;32;38327;-87
2023/12/29 03:32:34;;;;;;;27.58;15.48;;;;;;;4.68;63.60;100092.84;7710906;32;39851;-87
2023/12/29 03:36:51;;;;;;;31.08;16.90;;;;;;;4.65;63.65;100087.87;7710867;32;40895;-86
2023/12/29 03:41:07;;;;;;;36.83;19.65;;;;;;;4.70;63.46;100086.16;7710776;32;38134;-87
2023/12/29 03:45:23;;;;;;;34.55;18.30;;;;;;;4.76;63.38;100062.84;7710623;32;37136;-86
2023/12/29 03:49:40;;;;;;;31.48;16.45;;;;;;;4.48;64.75;100072.31;7710512;32;40098;-86
2023/12/29 03:53:58;;;;;;;33.15;17.23;;;;;;;4.60;64.67;100076.94;7710538;32;40604;-86
2023/12/29 03:58:14;;;;;;;31.08;17.17;;;;;;;4.53;64.69;100078.88;7710398;32;38136;-86
2023/12/29 04:02:31;;;;;;;32.35;17.30;;;;;;;4.43;65.08;100069.44;7710341;32;37245;-87
2023/12/29 04:06:47;;;;;;;39.15;16.95;;;;;;;4.45;64.75;100067.34;7710200;32;39350;-86
2023/12/29 04:11:04;;;;;;;28.67;16.20;;;;;;;4.72;64.29;100056.22;7710127;32;39915;-87
2023/12/29 04:15:21;;;;;;;30.77;17.55;;;;;;;4.68;64.43;100063.13;7709866;32;38262;-87
2023/12/29 04:19:41;;;;;;;42.42;19.60;;;;;;;4.79;63.91;100064.25;7709936;32;38023;-87
2023/12/29 04:23:57;;;;;;;35.25;18.85;;;;;;;4.87;63.68;100061.25;7709763;32;39979;-87
2023/12/29 04:28:14;;;;;;;34.95;18.73;;;;;;;4.93;63.51;100048.69;7709757;32;40068;-86
2023/12/29 04:32:30;;;;;;;36.13;18.15;;;;;;;4.61;64.56;100081.28;7712979;32;38631;-87
2023/12/29 04:36:46;;;;;;;32.53;17.90;;;;;;;4.99;63.44;100072.09;7713111;32;37168;-87
2023/12/29 04:41:03;;;;;;;36.40;19.02;;;;;;;5.03;62.95;100078.69;7713104;32;39331;-87
2023/12/29 04:45:19;;;;;;;32.50;18.30;;;;;;;4.77;63.69;100086.06;7712782;32;40796;-87
2023/12/29 04:49:35;;;;;;;32.22;17.33;;;;;;;4.64;64.02;100097.03;7712786;32;38745;-87
2023/12/29 04:53:52;;;;;;;35.92;18.50;;;;;;;4.91;63.46;100102.13;7712953;32;38082;-87
2023/12/29 04:58:08;;;;;;;36.53;19.23;;;;;;;4.65;64.05;100090.59;7712840;32;39538;-87
2023/12/29 05:02:24;;;;;;;37.03;19.60;;;;;;;4.80;63.84;100091.03;7712787;32;39655;-87
2023/12/29 05:06:41;;;;;;;38.33;19.05;;;;;;;4.70;64.43;100096.12;7712574;32;38446;-85
2023/12/29 05:10:57;;;;;;;36.55;20.20;;;;;;;4.75;64.43;100096.28;7712717;32;37257;-86
2023/12/29 05:15:14;;;;;;;36.13;19.30;;;;;;;4.46;65.02;100092.47;7712353;32;39749;-86
2023/12/29 05:19:31;;;;;;;34.40;19.02;;;;;;;4.72;64.33;100094.03;7712478;32;39950;-86
2023/12/29 05:23:48;;;;;;;33.03;17.83;;;;;;;4.91;63.83;100092.13;7712595;32;37994;-86
2023/12/29 05:28:04;;;;;;;32.50;18.37;;;;;;;4.77;64.20;100096.88;7712516;32;37273;-86
2023/12/29 05:32:20;;;;;;;43.90;22.05;;;;;;;4.99;63.56;100109.94;7712416;32;39132;-86
2023/12/29 05:36:37;;;;;;;56.88;25.67;;;;;;;4.83;63.60;100101.41;7712339;32;40828;-86
2023/12/29 05:40:53;;;;;;;45.75;23.00;;;;;;;4.87;63.20;100107.97;7712060;32;38722;-86
2023/12/29 05:45:10;;;;;;;38.25;19.10;;;;;;;4.69;63.72;100102.56;7698368;32;37350;-86
2023/12/29 05:49:26;;;;;;;196.68;24.65;;;;;;;4.77;63.58;100099.59;7712219;32;40686;-83
2023/12/29 05:53:43;;;;;;;34.88;19.80;;;;;;;4.63;64.20;100090.81;7712159;32;39760;-83
2023/12/29 05:58:00;;;;;;;95.40;23.17;;;;;;;4.63;64.21;100095.41;7711900;32;38761;-86
2023/12/29 06:02:16;;;;;;;260.38;28.12;;;;;;;4.63;64.55;100095.41;7712024;32;37463;-86
2023/12/29 06:06:33;;;;;;;287.45;29.10;;;;;;;4.58;64.66;100087.97;7711941;32;40070;-86
2023/12/29 06:10:49;;;;;;;42.45;21.52;;;;;;;4.53;64.81;100078.88;7711888;32;39924;-86
2023/12/29 06:15:06;;;;;;;104.22;22.73;;;;;;;4.54;64.98;100085.94;7711684;32;38837;-85
2023/12/29 06:19:22;;;;;;;31.50;18.65;;;;;;;4.50;65.10;100097.19;7711869;32;37007;-86
2023/12/29 06:23:39;;;;;;;35.60;17.83;;;;;;;4.60;64.77;100095.84;7711885;32;39875;-86
2023/12/29 06:27:55;;;;;;;31.35;17.90;;;;;;;4.16;64.79;100108.53;7711734;32;40794;-86
2023/12/29 06:32:11;;;;;;;42.25;22.90;;;;;;;4.34;63.94;100111.25;7711627;32;38605;-87
2023/12/29 06:36:28;;;;;;;43.87;23.38;;;;;;;4.26;64.40;100107.00;7697851;32;37955;-86
2023/12/29 06:40:45;;;;;;;53.60;23.50;;;;;;;4.45;64.23;100118.63;7711612;32;39054;-87
2023/12/29 06:45:01;;;;;;;48.03;22.23;;;;;;;4.46;64.45;100105.97;7711445;32;39862;-86
2023/12/29 06:49:18;;;;;;;57.85;22.55;;;;;;;4.67;63.44;100091.19;7711427;32;38088;-86
2023/12/29 06:53:34;;;;;;;148.50;24.90;;;;;;;4.18;65.15;100077.59;7710862;32;36923;-86
2023/12/29 06:57:51;;;;;;;46.92;21.40;;;;;;;3.42;67.39;100101.00;7711533;32;39819;-86
2023/12/29 07:02:07;;;;;;;71.30;23.10;;;;;;;3.93;65.63;100102.72;7711461;32;39969;-86
2023/12/29 07:06:23;;;;;;;92.95;24.73;;;;;;;4.13;64.71;100113.31;7711262;32;38784;-86
2023/12/29 07:10:40;;;;;;;68.47;21.40;;;;;;;4.16;64.69;100116.62;7711454;32;37302;-85
2023/12/29 07:14:56;;;;;;;112.70;22.45;;;;;;;4.13;64.68;100126.81;7711076;32;39660;-86
2023/12/29 07:19:12;;;;;;;76.22;21.23;;;;;;;4.21;64.24;100108.69;7711131;32;39732;-86
2023/12/29 07:23:29;;;;;;;61.22;20.48;;;;;;;3.83;65.54;100106.94;7711034;32;37938;-86
2023/12/29 07:27:45;;;;;;;114.20;21.58;;;;;;;3.91;65.51;100109.38;7711171;32;38145;-85
2023/12/29 07:32:02;;;;;;;392.95;36.38;;;;;;;3.95;65.78;100107.91;7710924;32;39458;-86
2023/12/29 07:36:18;;;;;;;50.47;22.75;;;;;;;3.85;65.65;100110.25;7710973;32;40523;-86
2023/12/29 07:40:35;;;;;;;50.35;22.50;;;;;;;4.10;65.35;100123.72;7710775;32;38756;-87
2023/12/29 07:44:51;;;;;;;74.97;22.30;;;;;;;4.40;64.83;100128.44;7710882;32;38030;-86
2023/12/29 07:49:07;;;;;;;127.20;23.62;;;;;;;4.15;66.02;100126.59;7710551;32;39303;-87
2023/12/29 07:53:24;;;;;;;108.37;23.08;;;;;;;4.30;65.70;100128.97;7710511;32;40049;-86
2023/12/29 07:57:40;;;;;;;146.32;22.87;;;;;;;4.24;65.93;100127.97;7710298;32;38713;-86
2023/12/29 08:01:57;;;;;;;153.68;22.85;;;;;;;4.69;64.77;100132.28;7710517;32;37920;-86
2023/12/29 08:06:14;;;;;;;281.05;26.87;;;;;;;4.58;65.86;100124.94;7696109;32;39372;-87
2023/12/29 08:10:31;;;;;;;127.30;21.37;;;;;;;4.62;65.80;100110.78;7710114;32;39673;-86
2023/12/29 08:14:48;;;;;;;144.35;20.85;;;;;;;4.98;65.00;100113.69;7709775;32;37908;-87
2023/12/29 08:19:04;;;;;;;171.60;24.67;;;;;;;5.01;65.26;100124.84;7709906;32;37344;-88
2023/12/29 08:23:20;;;;;;;202.98;24.45;;;;;;;5.14;65.32;100131.13;7709842;32;39321;-87
2023/12/29 08:27:38;;;;;;;94.43;24.27;;;;;;;4.78;66.12;100140.94;7709482;32;40180;-88
2023/12/29 08:31:54;;;;;;;147.37;21.00;;;;;;;4.97;65.83;100144.47;7695781;32;37664;-88
2023/12/29 08:36:12;;;;;;;176.80;22.00;;;;;;;5.11;65.63;100140.53;7709390;32;37096;-87
2023/12/29 08:40:29;;;;;;;89.05;19.65;;;;;;;5.35;65.36;100138.78;7714576;32;39288;-88
2023/12/29 08:44:45;;;;;;;29.10;15.00;;;;;;;5.34;66.96;100130.88;7736288;32;39325;-88
2023/12/29 08:49:01;;;;;;;24.10;13.15;;;;;;;6.17;65.74;100115.69;7722265;32;37849;-88
2023/12/29 08:53:18;;;;;;;24.35;13.85;;;;;;;6.51;65.30;100099.69;7736050;32;38038;-87
2023/12/29 08:57:34;;;;;;;25.30;13.95;;;;;;;6.93;64.57;100096.75;7735674;32;39902;-86
2023/12/29 09:01:51;;;;;;;85.93;20.42;;;;;;;7.15;60.88;100116.72;7735568;32;39849;-86
2023/12/29 09:06:08;;;;;;;176.25;22.50;;;;;;;6.26;61.49;100125.13;7735401;32;38810;-88
2023/12/29 09:10:25;;;;;;;92.22;21.12;;;;;;;5.53;63.09;100131.66;7735443;32;37564;-87
2023/12/29 09:14:41;;;;;;;117.90;21.83;;;;;;;5.33;63.99;100131.94;7735446;32;40000;-87
2023/12/29 09:18:57;;;;;;;42.80;18.73;;;;;;;5.49;63.77;100141.31;7739247;32;39962;-82
2023/12/29 09:23:14;;;;;;;57.35;18.77;;;;;;;5.47;66.02;100141.53;7739175;32;38030;-89
2023/12/29 09:27:30;;;;;;;43.35;20.12;;;;;;;5.68;63.97;100139.38;7739319;32;37056;-88
2023/12/29 09:31:47;;;;;;;181.05;22.58;;;;;;;5.72;63.56;100133.25;7739135;32;39063;-89
2023/12/29 09:36:04;;;;;;;94.97;20.73;;;;;;;5.79;62.71;100127.72;7738516;32;38597;-89
2023/12/29 09:40:21;;;;;;;51.45;18.85;;;;;;;5.91;62.93;100138.59;7738363;32;38736;-87
2023/12/29 09:44:38;;;;;;;68.40;18.92;;;;;;;6.05;63.35;100128.41;7724789;32;37993;-88
2023/12/29 09:48:58;;;;;;;98.28;20.70;;;;;;;5.99;64.07;100114.75;7739118;32;40159;-90
2023/12/29 09:53:16;;;;;;;140.32;21.62;;;;;;;5.99;64.26;100114.75;7739143;32;39781;-88
2023/12/29 09:57:33;;;;;;;149.35;20.17;;;;;;;5.62;64.32;100119.44;7725189;32;37998;-88
2023/12/29 10:01:50;;;;;;;70.80;19.10;;;;;;;5.48;65.26;100121.53;7724961;32;38133;-87
2023/12/29 10:06:08;;;;;;;170.65;22.83;;;;;;;5.42;64.83;100114.34;7738596;32;39958;-88
2023/12/29 10:10:26;;;;;;;208.32;22.58;;;;;;;5.21;66.40;100108.37;7738660;32;40806;-88
2023/12/29 10:14:48;;;;;;;87.97;21.35;;;;;;;5.64;65.87;100096.53;7724676;32;38392;-88
2023/12/29 10:19:08;;;;;;;301.20;25.60;;;;;;;5.81;65.64;100090.44;7738694;32;38120;-88
2023/12/29 10:23:48;;;;;;;124.20;21.48;;;;;;;5.65;65.95;100098.16;7738605;32;39834;-88
2023/12/29 10:28:05;;;;;;;140.82;22.52;;;;;;;5.59;66.28;100085.59;7726021;32;40026;-89
2023/12/29 10:32:22;;;;;;;68.55;20.73;;;;;;;5.67;65.56;100091.72;7709768;32;37917;-89
2023/12/29 10:36:50;;;;;;;60.67;19.90;;;;;;;6.07;64.69;100081.09;7711419;32;36903;-88
2023/12/29 10:41:18;;;;;;;51.78;19.73;;;;;;;6.27;67.29;100066.38;7711086;32;40010;-80
2023/12/29 10:45:36;;;;;;;48.30;20.92;;;;;;;6.50;64.79;100065.53;7710728;32;40051;-80
2023/12/29 10:49:58;;;;;;;52.90;20.67;;;;;;;6.95;63.98;100057.53;7723623;32;37000;-80
2023/12/29 10:54:23;;;;;;;42.97;19.70;;;;;;;7.24;63.39;100049.38;7735320;32;38019;-79
2023/12/29 10:58:41;;;;;;;41.28;19.60;;;;;;;7.50;62.15;100049.81;7722835;32;37968;-79
2023/12/29 11:02:57;;;;;;;179.02;21.95;;;;;;;7.24;62.11;100064.81;7711271;32;40563;-79
2023/12/29 11:07:15;;;;;;;79.65;22.13;;;;;;;6.15;64.41;100047.44;7709829;32;37661;-80
2023/12/29 11:11:34;;;;;;;51.15;20.10;;;;;;;6.97;62.83;100043.72;7717614;32;38151;-81
2023/12/29 11:15:51;;;;;;;59.92;21.25;;;;;;;7.17;63.01;100037.84;7695746;32;38277;-81
2023/12/29 11:20:07;;;;;;;59.42;20.05;;;;;;;7.31;63.14;100001.25;7721028;32;40798;-81
2023/12/29 11:24:24;;;;;;;55.00;20.20;;;;;;;7.80;61.54;100002.56;7709674;32;38786;-81
2023/12/29 11:28:53;;;;;;;88.40;22.23;;;;;;;7.65;61.38;100008.56;7710117;32;37247;-81
2023/12/29 11:33:20;;;;;;;43.47;20.83;;;;;;;7.66;60.82;100002.06;7710577;32;37789;-80
2023/12/29 11:38:09;;;;;;;37.78;19.92;;;;;;;8.04;60.41;100003.19;7719269;32;40567;-79
2023/12/29 11:42:35;;;;;;;42.42;22.60;;;;;;;8.24;60.68;99992.59;7723864;32;38659;-80
2023/12/29 11:46:51;;;;;;;44.63;21.83;;;;;;;8.48;60.99;99981.50;7722632;32;37663;-81
2023/12/29 11:51:39;;;;;;;45.58;22.00;;;;;;;8.61;59.51;99969.44;7710007;32;39359;-80
2023/12/29 11:55:56;;;;;;;56.08;20.42;;;;;;;8.14;59.69;99978.91;7708438;32;40841;-81
2023/12/29 12:00:12;;;;;;;158.32;23.85;;;;;;;8.04;59.50;99970.59;7717622;32;38600;-85
2023/12/29 12:04:42;;;;;;;97.88;22.40;;;;;;;7.14;62.00;99968.69;7698227;32;37355;-81
2023/12/29 12:09:27;;;;;;;56.80;20.77;;;;;;;7.06;63.70;99965.53;7709022;32;39126;-79
2023/12/29 12:13:45;;;;;;;167.32;22.27;;;;;;;7.19;62.85;99964.41;7720503;32;39906;-81
2023/12/29 12:18:09;;;;;;;277.77;25.60;;;;;;;6.72;63.83;99966.28;7709903;32;37854;-81
2023/12/29 12:22:26;;;;;;;59.67;24.05;;;;;;;6.50;64.25;99971.56;7710148;32;38172;-82
2023/12/29 12:26:43;;;;;;;59.05;24.33;;;;;;;6.83;64.25;99966.47;7709661;32;39486;-83
2023/12/29 12:31:08;;;;;;;141.65;24.65;;;;;;;7.04;63.31;99962.25;7709584;32;40001;-84
2023/12/29 12:35:28;;;;;;;88.28;25.17;;;;;;;6.84;63.84;99958.09;7708602;32;38659;-84
2023/12/29 12:39:44;;;;;;;42.78;22.15;;;;;;;6.37;64.81;99956.41;7709457;32;36905;-84
2023/12/29 12:44:14;;;;;;;109.03;22.75;;;;;;;7.40;62.86;99947.41;7709254;32;40103;-84
2023/12/29 12:48:40;;;;;;;72.03;24.23;;;;;;;7.02;62.45;99940.81;7709166;32;40011;-84
2023/12/29 12:52:58;;;;;;;56.35;22.60;;;;;;;7.08;62.31;99939.81;7712446;32;37942;-84
2023/12/29 12:57:19;;;;;;;82.88;28.23;;;;;;;6.81;63.20;99939.59;7712856;32;37890;-83
2023/12/29 13:01:36;;;;;;;153.95;25.98;;;;;;;6.86;63.18;99947.03;7723970;32;39465;-82
2023/12/29 13:05:54;;;;;;;288.83;30.48;;;;;;;6.65;64.08;99954.75;7723701;32;40761;-82
2023/12/29 13:10:10;;;;;;;57.35;25.25;;;;;;;6.74;63.49;99947.91;7712525;32;38650;-82
2023/12/29 13:14:26;;;;;;;57.33;26.75;;;;;;;6.91;63.73;99944.41;7723820;32;38025;-82
2023/12/29 13:18:45;;;;;;;54.70;26.73;;;;;;;7.11;63.75;99936.62;7712626;32;39360;-82
2023/12/29 13:23:01;;;;;;;60.65;27.90;;;;;;;6.90;64.22;99929.22;7712524;32;38965;-81
2023/12/29 13:27:18;;;;;;;51.63;25.85;;;;;;;6.78;64.62;99923.88;7732377;32;38032;-83
2023/12/29 13:31:34;;;;;;;53.10;26.58;;;;;;;7.02;63.63;99916.41;7711257;32;37188;-83
2023/12/29 13:35:56;;;;;;;55.40;27.17;;;;;;;7.33;63.21;99901.47;7711256;32;39826;-84
2023/12/29 13:40:41;;;;;;;52.88;27.17;;;;;;;7.40;62.93;99912.16;7711181;32;40553;-84
2023/12/29 13:44:59;;;;;;;51.65;24.77;;;;;;;7.63;61.79;99915.75;7711186;32;38587;-83
2023/12/29 13:49:15;;;;;;;50.63;24.27;;;;;;;8.03;61.31;99910.03;7712271;32;37169;-83
2023/12/29 13:53:32;;;;;;;43.78;24.80;;;;;;;8.02;60.09;99913.84;7712049;32;40217;-84
2023/12/29 13:57:48;;;;;;;51.20;24.85;;;;;;;7.75;60.55;99916.44;7698432;32;40568;-84
2023/12/29 14:02:31;;;;;;;45.95;24.02;;;;;;;7.56;61.45;99910.47;7702103;32;38739;-82
2023/12/29 14:06:53;;;;;;;51.75;25.27;;;;;;;7.66;61.26;99909.81;7738869;32;37249;-84
2023/12/29 14:11:10;;;;;;;55.50;30.00;;;;;;;7.85;60.76;99921.22;7738602;32;39392;-84
2023/12/29 14:15:27;;;;;;;56.78;28.95;;;;;;;7.88;60.88;99924.25;7738442;32;40563;-85
2023/12/29 14:19:43;;;;;;;44.60;24.85;;;;;;;8.28;59.28;99939.41;7738762;32;37886;-84
2023/12/29 14:24:09;;;;;;;48.42;24.75;;;;;;;8.22;58.72;99945.84;7738511;32;37347;-83
2023/12/29 14:28:27;;;;;;;39.35;22.10;;;;;;;8.42;57.76;99955.34;7738464;32;39380;-84
2023/12/29 14:32:44;;;;;;;44.85;22.23;;;;;;;8.23;58.16;99958.38;7738338;32;40838;-84
2023/12/29 14:37:02;;;;;;;41.83;21.65;;;;;;;7.81;58.93;99967.03;7735893;32;38503;-84
2023/12/29 14:41:18;;;;;;;49.72;25.65;;;;;;;7.84;58.99;99971.94;7711647;32;37414;-85
2023/12/29 14:45:34;;;;;;;48.70;25.08;;;;;;;8.08;58.27;99974.44;7711650;32;40038;-85
2023/12/29 14:49:51;;;;;;;42.38;24.50;;;;;;;7.50;59.17;99993.69;7711445;32;39979;-83
2023/12/29 14:54:07;;;;;;;47.97;22.98;;;;;;;7.53;63.03;99995.06;7711521;32;38019;-84
2023/12/29 14:58:24;;;;;;;51.42;24.87;;;;;;;7.47;59.74;99990.66;7711064;32;38074;-84
2023/12/29 15:02:42;;;;;;;49.38;24.92;;;;;;;7.06;59.89;99998.88;7711152;32;40585;-84
2023/12/29 15:06:58;;;;;;;48.20;26.52;;;;;;;7.09;59.51;100001.12;7711090;32;38952;-84
2023/12/29 15:11:15;;;;;;;52.67;25.67;;;;;;;7.13;59.64;100004.97;7710939;32;38054;-84
2023/12/29 15:15:31;;;;;;;50.35;25.12;;;;;;;6.95;60.15;100007.88;7710451;32;37054;-83
2023/12/29 15:19:47;;;;;;;47.15;24.42;;;;;;;6.72;60.71;99992.56;7711146;32;40031;-84
2023/12/29 15:24:04;;;;;;;50.72;25.23;;;;;;;6.81;60.90;99990.28;7710975;32;40018;-84
2023/12/29 15:28:21;;;;;;;50.28;24.80;;;;;;;6.89;60.91;100004.28;7710959;32;37998;-83
2023/12/29 15:32:38;;;;;;;54.67;28.10;;;;;;;6.93;60.97;100005.44;7710935;32;37006;-83
2023/12/29 15:36:55;;;;;;;52.25;25.77;;;;;;;6.61;62.59;100007.78;7711003;32;39366;-83
2023/12/29 15:41:11;;;;;;;46.05;24.25;;;;;;;6.64;62.52;99984.81;7710775;32;40242;-83
2023/12/29 15:45:28;;;;;;;34.78;21.37;;;;;;;6.49;63.09;99982.62;7710307;32;38031;-82
2023/12/29 15:49:45;;;;;;;52.92;29.40;;;;;;;7.00;61.66;99974.62;7710358;32;37223;-82
2023/12/29 15:54:02;;;;;;;57.80;29.85;;;;;;;6.30;63.69;99985.50;7710549;32;40022;-83
2023/12/29 15:58:18;;;;;;;57.53;30.90;;;;;;;6.27;63.99;99985.97;7710532;32;40822;-83
2023/12/29 16:02:34;;;;;;;55.08;28.27;;;;;;;6.16;64.00;99993.06;7710366;32;37710;-83
2023/12/29 16:06:51;;;;;;;60.33;30.45;;;;;;;5.62;65.23;100001.28;7710268;32;37364;-83
2023/12/29 16:11:07;;;;;;;62.15;30.35;;;;;;;6.49;62.46;99996.19;7710253;32;39346;-83
2023/12/29 16:15:23;;;;;;;53.38;29.00;;;;;;;6.34;62.87;100002.09;7709617;32;40130;-82
2023/12/29 16:19:39;;;;;;;59.33;30.00;;;;;;;6.08;63.81;99987.19;7709832;32;38931;-81
2023/12/29 16:23:56;;;;;;;56.53;29.65;;;;;;;6.34;62.83;99975.81;7714338;32;38104;-84
2023/12/29 16:28:12;;;;;;;58.67;29.45;;;;;;;5.99;63.95;99982.12;7725635;32;40033;-84
2023/12/29 16:32:32;;;;;;;52.38;28.73;;;;;;;5.99;63.86;99989.44;7725147;32;39659;-83
2023/12/29 16:37:00;;;;;;;56.15;28.00;;;;;;;6.14;63.12;99976.22;7724960;32;38633;-82
2023/12/29 16:41:17;;;;;;;55.60;26.12;;;;;;;6.16;63.10;99984.94;7725394;32;37802;-83
2023/12/29 16:45:33;;;;;;;51.55;26.00;;;;;;;6.11;63.09;99982.12;7714639;32;39369;-82
2023/12/29 16:49:50;;;;;;;48.92;23.75;;;;;;;6.12;63.22;99982.94;7713033;32;40941;-84
2023/12/29 16:54:06;;;;;;;45.72;24.23;;;;;;;6.02;63.04;99964.59;7712806;32;38417;-85
2023/12/29 16:58:23;;;;;;;51.80;26.77;;;;;;;6.00;63.09;99970.25;7712714;32;37947;-83
2023/12/29 17:02:39;;;;;;;54.67;27.77;;;;;;;6.09;62.82;99961.75;7712828;32;39495;-84
2023/12/29 17:06:55;;;;;;;48.17;25.77;;;;;;;6.10;62.95;99960.69;7712747;32;40784;-83
2023/12/29 17:11:12;;;;;;;53.55;25.27;;;;;;;6.01;62.86;99946.72;7712620;32;37953;-84
2023/12/29 17:15:28;;;;;;;48.13;27.45;;;;;;;6.25;61.77;99950.19;7712590;32;38028;-84
2023/12/29 17:19:44;;;;;;;43.33;25.92;;;;;;;6.19;62.06;99956.56;7712723;32;40546;-84
2023/12/29 17:24:01;;;;;;;50.45;26.83;;;;;;;6.03;62.44;99949.19;7716583;32;40599;-84
2023/12/29 17:28:17;;;;;;;44.40;24.73;;;;;;;5.89;62.86;99957.50;7724508;32;38745;-84
2023/12/29 17:32:34;;;;;;;49.03;25.25;;;;;;;5.95;62.21;99961.16;7730145;32;37368;-84
2023/12/29 17:36:51;;;;;;;43.78;24.17;;;;;;;5.86;62.25;99960.69;7738818;32;39432;-85
2023/12/29 17:41:07;;;;;;;49.20;25.73;;;;;;;6.04;61.59;99967.06;7739094;32;39926;-83
2023/12/29 17:45:23;;;;;;;46.40;25.67;;;;;;;6.03;61.38;99965.41;7716772;32;38825;-83
2023/12/29 17:49:44;;;;;;;41.60;25.85;;;;;;;5.71;61.98;99954.94;7712253;32;38107;-83
2023/12/29 17:54:01;;;;;;;47.95;26.17;;;;;;;5.97;61.40;99953.66;7712335;32;39886;-84
2023/12/29 17:58:17;;;;;;;42.35;24.50;;;;;;;6.11;61.40;99954.25;7712070;32;39972;-85
2023/12/29 18:02:33;;;;;;;45.25;25.33;;;;;;;5.95;62.10;99950.31;7712075;32;38665;-83
2023/12/29 18:06:50;;;;;;;42.58;25.00;;;;;;;5.98;62.38;99952.59;7698198;32;37231;-84
2023/12/29 18:11:19;;;;;;;45.97;26.50;;;;;;;6.18;61.66;99957.63;7711925;32;40154;-84
2023/12/29 18:15:35;;;;;;;41.40;24.80;;;;;;;5.92;62.97;99953.53;7711778;32;40749;-85
2023/12/29 18:19:51;;;;;;;41.33;26.17;;;;;;;6.01;62.33;99960.25;7711818;32;37814;-85
2023/12/29 18:24:08;;;;;;;49.88;27.75;;;;;;;5.92;62.84;99967.06;7711819;32;37957;-84
2023/12/29 18:28:24;;;;;;;48.42;28.05;;;;;;;6.04;62.76;99969.75;7711806;32;39475;-84
2023/12/29 18:32:40;;;;;;;52.05;28.12;;;;;;;6.05;62.82;99977.63;7711618;32;39690;-85
2023/12/29 18:36:57;;;;;;;48.83;26.65;;;;;;;6.06;62.84;99983.91;7711739;32;37950;-84
2023/12/29 18:41:13;;;;;;;48.80;28.33;;;;;;;5.98;62.59;99982.38;7711679;32;37402;-85
2023/12/29 18:45:29;;;;;;;47.75;25.85;;;;;;;5.97;62.59;99989.66;7711283;32;40039;-86
2023/12/29 18:49:46;;;;;;;49.95;27.75;;;;;;;5.83;62.90;99974.72;7710511;32;40024;-84
2023/12/29 18:54:03;;;;;;;55.38;27.70;;;;;;;5.82;62.86;99984.69;7711355;32;38706;-85
2023/12/29 18:58:20;;;;;;;62.60;32.30;;;;;;;5.83;62.88;99988.25;7711459;32;37351;-84
2023/12/29 19:02:36;;;;;;;62.88;31.80;;;;;;;5.65;64.15;99973.75;7711229;32;39343;-84
2023/12/29 19:06:52;;;;;;;58.58;30.52;;;;;;;5.69;63.58;99965.16;7711453;32;39698;-85
2023/12/29 19:11:17;;;;;;;59.08;30.58;;;;;;;5.70;63.83;99961.41;7711249;32;38421;-85
2023/12/29 19:15:34;;;;;;;60.35;32.00;;;;;;;5.80;63.72;99962.47;7732989;32;38044;-81
2023/12/29 19:19:50;;;;;;;53.80;29.10;;;;;;;5.58;64.07;99970.34;7722081;32;40101;-81
2023/12/29 19:24:06;;;;;;;59.65;30.12;;;;;;;5.52;63.65;99957.78;7711283;32;40858;-81
2023/12/29 19:28:23;;;;;;;52.08;27.73;;;;;;;5.14;65.23;99967.12;7710872;32;38488;-82
2023/12/29 19:32:42;;;;;;;53.60;30.92;;;;;;;5.44;63.66;99955.41;7730619;32;37969;-84
2023/12/29 19:36:59;;;;;;;47.03;25.30;;;;;;;5.45;63.88;99960.56;7737850;32;38992;-84
2023/12/29 19:41:19;;;;;;;43.10;25.08;;;;;;;5.59;63.26;99963.87;7729754;32;39976;-84
2023/12/29 19:45:35;;;;;;;41.78;24.27;;;;;;;5.54;63.11;99960.25;7721935;32;37793;-84
2023/12/29 19:49:51;;;;;;;46.28;25.10;;;;;;;5.48;62.91;99940.34;7710721;32;37227;-83